sensor_id;sensor_type;location;lat;lon;timestamp;P1;durP1;ratioP1;P2;durP2;ratioP2
5646;SDS011;2845;48.626;9.362;2023-07-13T00:00:06;2.60;;;0.43;;
5646;SDS011;2845;48.626;9.362;2023-07-13T00:02:42;0.90;;;0.50;;
5646;SDS011;2845;48.626;9.362;2023-07-13T00:05:17;2.85;;;0.68;;
5646;SDS011;2845;48.626;9.362;2023-07-13T00:07:52;1.42;;;0.68;;
5646;SDS011;2845;48.626;9.362;2023-07-13T00:10:27;0.68;;;0.50;;
5646;SDS011;2845;48.626;9.362;2023-07-13T00:13:01;1.42;;;0.60;;
5646;SDS011;2845;48.626;9.362;2023-07-13T00:15:36;0.70;;;0.43;;
5646;SDS011;2845;48.626;9.362;2023-07-13T00:18:10;1.42;;;0.70;;
5646;SDS011;2845;48.626;9.362;2023-07-13T00:20:44;1.92;;;0.57;;
5646;SDS011;2845;48.626;9.362;2023-07-13T00:23:20;2.17;;;0.70;;
5646;SDS011;2845;48.626;9.362;2023-07-13T00:25:55;1.00;;;0.52;;
5646;SDS011;2845;48.626;9.362;2023-07-13T00:28:29;1.15;;;0.57;;
5646;SDS011;2845;48.626;9.362;2023-07-13T00:31:04;1.33;;;0.40;;
5646;SDS011;2845;48.626;9.362;2023-07-13T00:33:40;2.58;;;0.55;;
5646;SDS011;2845;48.626;9.362;2023-07-13T00:36:15;1.88;;;0.60;;
5646;SDS011;2845;48.626;9.362;2023-07-13T00:38:50;1.85;;;0.95;;
5646;SDS011;2845;48.626;9.362;2023-07-13T00:41:25;2.60;;;0.60;;
5646;SDS011;2845;48.626;9.362;2023-07-13T00:43:59;1.60;;;0.75;;
5646;SDS011;2845;48.626;9.362;2023-07-13T00:46:33;1.77;;;0.80;;
5646;SDS011;2845;48.626;9.362;2023-07-13T00:49:09;0.77;;;0.40;;
5646;SDS011;2845;48.626;9.362;2023-07-13T00:51:47;1.38;;;0.77;;
5646;SDS011;2845;48.626;9.362;2023-07-13T00:54:27;1.05;;;0.52;;
5646;SDS011;2845;48.626;9.362;2023-07-13T00:57:06;1.63;;;0.75;;
5646;SDS011;2845;48.626;9.362;2023-07-13T00:59:47;2.10;;;0.68;;
5646;SDS011;2845;48.626;9.362;2023-07-13T01:02:25;1.05;;;0.40;;
5646;SDS011;2845;48.626;9.362;2023-07-13T01:05:04;1.48;;;0.57;;
5646;SDS011;2845;48.626;9.362;2023-07-13T01:07:43;1.60;;;0.50;;
5646;SDS011;2845;48.626;9.362;2023-07-13T01:10:22;1.95;;;0.82;;
5646;SDS011;2845;48.626;9.362;2023-07-13T01:12:58;1.98;;;0.75;;
5646;SDS011;2845;48.626;9.362;2023-07-13T01:15:34;1.80;;;0.50;;
5646;SDS011;2845;48.626;9.362;2023-07-13T01:18:12;1.40;;;0.60;;
5646;SDS011;2845;48.626;9.362;2023-07-13T01:20:53;2.28;;;0.75;;
5646;SDS011;2845;48.626;9.362;2023-07-13T01:23:28;0.60;;;0.50;;
5646;SDS011;2845;48.626;9.362;2023-07-13T01:26:04;1.63;;;0.63;;
5646;SDS011;2845;48.626;9.362;2023-07-13T01:28:38;1.13;;;0.50;;
5646;SDS011;2845;48.626;9.362;2023-07-13T01:31:13;1.40;;;0.60;;
5646;SDS011;2845;48.626;9.362;2023-07-13T01:33:47;2.35;;;0.60;;
5646;SDS011;2845;48.626;9.362;2023-07-13T01:36:23;0.75;;;0.40;;
5646;SDS011;2845;48.626;9.362;2023-07-13T01:38:57;1.15;;;0.50;;
5646;SDS011;2845;48.626;9.362;2023-07-13T01:41:31;1.20;;;0.60;;
5646;SDS011;2845;48.626;9.362;2023-07-13T01:44:05;1.55;;;0.68;;
5646;SDS011;2845;48.626;9.362;2023-07-13T01:46:39;1.05;;;0.52;;
5646;SDS011;2845;48.626;9.362;2023-07-13T01:49:14;1.15;;;0.60;;
5646;SDS011;2845;48.626;9.362;2023-07-13T01:51:50;1.95;;;0.88;;
5646;SDS011;2845;48.626;9.362;2023-07-13T01:54:24;1.67;;;0.60;;
5646;SDS011;2845;48.626;9.362;2023-07-13T01:56:58;1.45;;;0.68;;
5646;SDS011;2845;48.626;9.362;2023-07-13T01:59:32;0.80;;;0.30;;
5646;SDS011;2845;48.626;9.362;2023-07-13T02:02:07;1.83;;;0.55;;
5646;SDS011;2845;48.626;9.362;2023-07-13T02:04:41;1.08;;;0.50;;
5646;SDS011;2845;48.626;9.362;2023-07-13T02:07:17;1.40;;;0.60;;
5646;SDS011;2845;48.626;9.362;2023-07-13T02:09:51;0.68;;;0.40;;
5646;SDS011;2845;48.626;9.362;2023-07-13T02:12:26;1.30;;;0.45;;
5646;SDS011;2845;48.626;9.362;2023-07-13T02:15:00;1.02;;;0.50;;
5646;SDS011;2845;48.626;9.362;2023-07-13T02:17:34;1.25;;;0.60;;
5646;SDS011;2845;48.626;9.362;2023-07-13T02:20:09;1.70;;;0.80;;
5646;SDS011;2845;48.626;9.362;2023-07-13T02:22:45;2.03;;;0.90;;
5646;SDS011;2845;48.626;9.362;2023-07-13T02:25:20;1.00;;;0.45;;
5646;SDS011;2845;48.626;9.362;2023-07-13T02:27:55;1.92;;;0.55;;
5646;SDS011;2845;48.626;9.362;2023-07-13T02:30:29;0.60;;;0.40;;
5646;SDS011;2845;48.626;9.362;2023-07-13T02:33:04;1.92;;;0.70;;
5646;SDS011;2845;48.626;9.362;2023-07-13T02:35:39;0.90;;;0.60;;
5646;SDS011;2845;48.626;9.362;2023-07-13T02:38:14;2.08;;;0.75;;
5646;SDS011;2845;48.626;9.362;2023-07-13T02:40:48;1.55;;;0.50;;
5646;SDS011;2845;48.626;9.362;2023-07-13T02:43:23;1.73;;;0.60;;
5646;SDS011;2845;48.626;9.362;2023-07-13T02:45:58;1.80;;;0.88;;
5646;SDS011;2845;48.626;9.362;2023-07-13T02:48:37;1.92;;;0.60;;
5646;SDS011;2845;48.626;9.362;2023-07-13T02:51:12;0.80;;;0.50;;
5646;SDS011;2845;48.626;9.362;2023-07-13T02:53:48;0.93;;;0.57;;
5646;SDS011;2845;48.626;9.362;2023-07-13T02:56:23;1.52;;;0.45;;
5646;SDS011;2845;48.626;9.362;2023-07-13T02:58:59;2.60;;;0.55;;
5646;SDS011;2845;48.626;9.362;2023-07-13T03:01:34;1.00;;;0.45;;
5646;SDS011;2845;48.626;9.362;2023-07-13T03:04:09;1.98;;;0.60;;
5646;SDS011;2845;48.626;9.362;2023-07-13T03:06:44;1.63;;;0.65;;
5646;SDS011;2845;48.626;9.362;2023-07-13T03:09:20;0.65;;;0.40;;
5646;SDS011;2845;48.626;9.362;2023-07-13T03:11:55;1.77;;;0.40;;
5646;SDS011;2845;48.626;9.362;2023-07-13T03:14:29;1.27;;;0.57;;
5646;SDS011;2845;48.626;9.362;2023-07-13T03:17:04;0.60;;;0.40;;
5646;SDS011;2845;48.626;9.362;2023-07-13T03:19:38;1.50;;;0.70;;
5646;SDS011;2845;48.626;9.362;2023-07-13T03:22:12;0.60;;;0.40;;
5646;SDS011;2845;48.626;9.362;2023-07-13T03:24:48;1.35;;;0.52;;
5646;SDS011;2845;48.626;9.362;2023-07-13T03:27:22;1.63;;;0.60;;
5646;SDS011;2845;48.626;9.362;2023-07-13T03:29:57;1.30;;;0.50;;
5646;SDS011;2845;48.626;9.362;2023-07-13T03:32:31;0.80;;;0.43;;
5646;SDS011;2845;48.626;9.362;2023-07-13T03:35:06;1.98;;;0.57;;
5646;SDS011;2845;48.626;9.362;2023-07-13T03:37:42;1.92;;;0.70;;
5646;SDS011;2845;48.626;9.362;2023-07-13T03:40:18;1.08;;;0.55;;
5646;SDS011;2845;48.626;9.362;2023-07-13T03:42:52;2.53;;;0.70;;
5646;SDS011;2845;48.626;9.362;2023-07-13T03:45:26;1.42;;;0.50;;
5646;SDS011;2845;48.626;9.362;2023-07-13T03:48:01;0.90;;;0.70;;
5646;SDS011;2845;48.626;9.362;2023-07-13T03:50:35;1.27;;;0.63;;
5646;SDS011;2845;48.626;9.362;2023-07-13T03:53:10;2.25;;;0.60;;
5646;SDS011;2845;48.626;9.362;2023-07-13T03:55:46;1.15;;;0.52;;
5646;SDS011;2845;48.626;9.362;2023-07-13T03:58:24;0.93;;;0.60;;
5646;SDS011;2845;48.626;9.362;2023-07-13T04:01:05;1.05;;;0.63;;
5646;SDS011;2845;48.626;9.362;2023-07-13T04:03:41;1.23;;;0.40;;
5646;SDS011;2845;48.626;9.362;2023-07-13T04:06:17;2.00;;;0.80;;
5646;SDS011;2845;48.626;9.362;2023-07-13T04:08:55;1.33;;;0.60;;
5646;SDS011;2845;48.626;9.362;2023-07-13T04:11:32;0.95;;;0.50;;
5646;SDS011;2845;48.626;9.362;2023-07-13T04:14:08;1.02;;;0.50;;
5646;SDS011;2845;48.626;9.362;2023-07-13T04:16:43;0.77;;;0.50;;
5646;SDS011;2845;48.626;9.362;2023-07-13T04:19:17;1.50;;;0.50;;
5646;SDS011;2845;48.626;9.362;2023-07-13T04:21:52;1.33;;;0.55;;
5646;SDS011;2845;48.626;9.362;2023-07-13T04:24:26;1.17;;;0.55;;
5646;SDS011;2845;48.626;9.362;2023-07-13T04:27:02;2.40;;;0.55;;
5646;SDS011;2845;48.626;9.362;2023-07-13T04:29:36;1.23;;;0.50;;
5646;SDS011;2845;48.626;9.362;2023-07-13T04:32:11;0.88;;;0.40;;
5646;SDS011;2845;48.626;9.362;2023-07-13T04:34:45;1.13;;;0.50;;
5646;SDS011;2845;48.626;9.362;2023-07-13T04:37:19;2.15;;;0.82;;
5646;SDS011;2845;48.626;9.362;2023-07-13T04:39:54;2.22;;;0.88;;
5646;SDS011;2845;48.626;9.362;2023-07-13T04:42:29;1.35;;;0.68;;
5646;SDS011;2845;48.626;9.362;2023-07-13T04:45:04;1.05;;;0.55;;
5646;SDS011;2845;48.626;9.362;2023-07-13T04:47:40;1.65;;;0.75;;
5646;SDS011;2845;48.626;9.362;2023-07-13T04:50:15;2.63;;;0.70;;
5646;SDS011;2845;48.626;9.362;2023-07-13T04:52:53;1.00;;;0.57;;
5646;SDS011;2845;48.626;9.362;2023-07-13T04:55:27;1.30;;;0.60;;
5646;SDS011;2845;48.626;9.362;2023-07-13T04:58:04;0.88;;;0.45;;
5646;SDS011;2845;48.626;9.362;2023-07-13T05:00:39;3.88;;;0.68;;
5646;SDS011;2845;48.626;9.362;2023-07-13T05:03:13;1.77;;;0.50;;
5646;SDS011;2845;48.626;9.362;2023-07-13T05:05:54;2.20;;;0.60;;
5646;SDS011;2845;48.626;9.362;2023-07-13T05:08:29;1.65;;;0.60;;
5646;SDS011;2845;48.626;9.362;2023-07-13T05:11:04;1.40;;;0.57;;
5646;SDS011;2845;48.626;9.362;2023-07-13T05:13:41;1.52;;;0.88;;
5646;SDS011;2845;48.626;9.362;2023-07-13T05:16:15;1.05;;;0.68;;
5646;SDS011;2845;48.626;9.362;2023-07-13T05:18:49;1.08;;;0.50;;
5646;SDS011;2845;48.626;9.362;2023-07-13T05:21:23;1.90;;;0.77;;
5646;SDS011;2845;48.626;9.362;2023-07-13T05:23:58;1.40;;;0.60;;
5646;SDS011;2845;48.626;9.362;2023-07-13T05:26:50;0.95;;;0.57;;
5646;SDS011;2845;48.626;9.362;2023-07-13T05:29:26;1.90;;;0.82;;
5646;SDS011;2845;48.626;9.362;2023-07-13T05:32:00;0.70;;;0.40;;
5646;SDS011;2845;48.626;9.362;2023-07-13T05:34:35;1.23;;;0.75;;
5646;SDS011;2845;48.626;9.362;2023-07-13T05:37:09;2.63;;;1.08;;
5646;SDS011;2845;48.626;9.362;2023-07-13T05:39:43;1.33;;;0.60;;
5646;SDS011;2845;48.626;9.362;2023-07-13T05:42:18;2.15;;;0.68;;
5646;SDS011;2845;48.626;9.362;2023-07-13T05:44:53;0.95;;;0.40;;
5646;SDS011;2845;48.626;9.362;2023-07-13T05:47:28;2.13;;;0.50;;
5646;SDS011;2845;48.626;9.362;2023-07-13T05:50:02;1.80;;;0.60;;
5646;SDS011;2845;48.626;9.362;2023-07-13T05:52:38;1.52;;;0.70;;
5646;SDS011;2845;48.626;9.362;2023-07-13T05:55:12;0.65;;;0.40;;
5646;SDS011;2845;48.626;9.362;2023-07-13T05:57:46;1.45;;;0.77;;
5646;SDS011;2845;48.626;9.362;2023-07-13T06:00:22;1.52;;;0.60;;
5646;SDS011;2845;48.626;9.362;2023-07-13T06:02:56;2.45;;;0.70;;
5646;SDS011;2845;48.626;9.362;2023-07-13T06:05:31;2.55;;;0.50;;
5646;SDS011;2845;48.626;9.362;2023-07-13T06:08:06;1.15;;;0.50;;
5646;SDS011;2845;48.626;9.362;2023-07-13T06:10:41;1.58;;;0.57;;
5646;SDS011;2845;48.626;9.362;2023-07-13T06:13:15;1.40;;;0.60;;
5646;SDS011;2845;48.626;9.362;2023-07-13T06:15:52;1.33;;;0.80;;
5646;SDS011;2845;48.626;9.362;2023-07-13T06:18:26;1.00;;;0.52;;
5646;SDS011;2845;48.626;9.362;2023-07-13T06:21:01;0.70;;;0.57;;
5646;SDS011;2845;48.626;9.362;2023-07-13T06:23:40;1.90;;;0.60;;
5646;SDS011;2845;48.626;9.362;2023-07-13T06:26:14;1.40;;;0.55;;
5646;SDS011;2845;48.626;9.362;2023-07-13T06:28:49;1.40;;;0.88;;
5646;SDS011;2845;48.626;9.362;2023-07-13T06:31:24;1.55;;;0.65;;
5646;SDS011;2845;48.626;9.362;2023-07-13T06:33:58;1.70;;;0.60;;
5646;SDS011;2845;48.626;9.362;2023-07-13T06:36:33;2.70;;;0.77;;
5646;SDS011;2845;48.626;9.362;2023-07-13T06:39:08;1.95;;;0.80;;
5646;SDS011;2845;48.626;9.362;2023-07-13T06:41:42;2.35;;;0.65;;
5646;SDS011;2845;48.626;9.362;2023-07-13T06:44:16;1.30;;;0.88;;
5646;SDS011;2845;48.626;9.362;2023-07-13T06:46:52;1.35;;;0.55;;
5646;SDS011;2845;48.626;9.362;2023-07-13T06:49:26;1.08;;;0.47;;
5646;SDS011;2845;48.626;9.362;2023-07-13T06:52:00;1.73;;;0.70;;
5646;SDS011;2845;48.626;9.362;2023-07-13T06:54:34;1.38;;;0.68;;
5646;SDS011;2845;48.626;9.362;2023-07-13T06:57:08;1.23;;;0.60;;
5646;SDS011;2845;48.626;9.362;2023-07-13T06:59:43;2.50;;;0.80;;
5646;SDS011;2845;48.626;9.362;2023-07-13T07:02:18;1.15;;;0.70;;
5646;SDS011;2845;48.626;9.362;2023-07-13T07:04:52;0.77;;;0.60;;
5646;SDS011;2845;48.626;9.362;2023-07-13T07:07:27;1.20;;;0.90;;
5646;SDS011;2845;48.626;9.362;2023-07-13T07:10:01;0.90;;;0.70;;
5646;SDS011;2845;48.626;9.362;2023-07-13T07:12:36;2.85;;;1.10;;
5646;SDS011;2845;48.626;9.362;2023-07-13T07:15:10;2.50;;;0.70;;
5646;SDS011;2845;48.626;9.362;2023-07-13T07:17:46;1.08;;;0.63;;
5646;SDS011;2845;48.626;9.362;2023-07-13T07:20:20;3.13;;;0.70;;
5646;SDS011;2845;48.626;9.362;2023-07-13T07:22:54;1.35;;;0.70;;
5646;SDS011;2845;48.626;9.362;2023-07-13T07:25:28;2.13;;;0.80;;
5646;SDS011;2845;48.626;9.362;2023-07-13T07:28:04;3.25;;;0.60;;
5646;SDS011;2845;48.626;9.362;2023-07-13T07:30:41;5.53;;;1.00;;
5646;SDS011;2845;48.626;9.362;2023-07-13T07:33:20;1.40;;;0.63;;
5646;SDS011;2845;48.626;9.362;2023-07-13T07:35:54;1.23;;;0.60;;
5646;SDS011;2845;48.626;9.362;2023-07-13T07:38:31;0.85;;;0.47;;
5646;SDS011;2845;48.626;9.362;2023-07-13T07:41:06;1.95;;;0.70;;
5646;SDS011;2845;48.626;9.362;2023-07-13T07:43:43;1.33;;;0.55;;
5646;SDS011;2845;48.626;9.362;2023-07-13T07:46:17;1.52;;;0.70;;
5646;SDS011;2845;48.626;9.362;2023-07-13T07:48:52;1.73;;;0.60;;
5646;SDS011;2845;48.626;9.362;2023-07-13T07:51:27;1.27;;;0.55;;
5646;SDS011;2845;48.626;9.362;2023-07-13T07:54:01;1.38;;;0.60;;
5646;SDS011;2845;48.626;9.362;2023-07-13T07:56:36;1.33;;;0.50;;
5646;SDS011;2845;48.626;9.362;2023-07-13T07:59:13;1.02;;;0.70;;
5646;SDS011;2845;48.626;9.362;2023-07-13T08:01:50;1.40;;;0.68;;
5646;SDS011;2845;48.626;9.362;2023-07-13T08:04:28;1.85;;;0.70;;
5646;SDS011;2845;48.626;9.362;2023-07-13T08:07:05;1.98;;;0.75;;
5646;SDS011;2845;48.626;9.362;2023-07-13T08:09:40;1.83;;;0.70;;
5646;SDS011;2845;48.626;9.362;2023-07-13T08:12:15;2.03;;;0.60;;
5646;SDS011;2845;48.626;9.362;2023-07-13T08:15:10;3.28;;;0.70;;
5646;SDS011;2845;48.626;9.362;2023-07-13T08:17:47;1.10;;;0.60;;
5646;SDS011;2845;48.626;9.362;2023-07-13T08:20:23;3.88;;;0.60;;
5646;SDS011;2845;48.626;9.362;2023-07-13T08:22:58;1.15;;;0.60;;
5646;SDS011;2845;48.626;9.362;2023-07-13T08:25:32;1.45;;;0.47;;
5646;SDS011;2845;48.626;9.362;2023-07-13T08:28:07;2.15;;;0.77;;
5646;SDS011;2845;48.626;9.362;2023-07-13T08:30:41;1.15;;;0.50;;
5646;SDS011;2845;48.626;9.362;2023-07-13T08:33:15;1.80;;;0.75;;
5646;SDS011;2845;48.626;9.362;2023-07-13T08:35:51;2.15;;;0.80;;
5646;SDS011;2845;48.626;9.362;2023-07-13T08:38:25;2.25;;;0.70;;
5646;SDS011;2845;48.626;9.362;2023-07-13T08:41:02;2.13;;;0.52;;
5646;SDS011;2845;48.626;9.362;2023-07-13T08:43:48;0.70;;;0.43;;
5646;SDS011;2845;48.626;9.362;2023-07-13T08:46:25;0.77;;;0.50;;
5646;SDS011;2845;48.626;9.362;2023-07-13T08:49:08;2.35;;;0.70;;
5646;SDS011;2845;48.626;9.362;2023-07-13T08:51:49;1.30;;;0.60;;
5646;SDS011;2845;48.626;9.362;2023-07-13T08:54:27;1.35;;;0.60;;
5646;SDS011;2845;48.626;9.362;2023-07-13T08:57:09;2.45;;;0.60;;
5646;SDS011;2845;48.626;9.362;2023-07-13T08:59:48;2.00;;;0.85;;
5646;SDS011;2845;48.626;9.362;2023-07-13T09:02:25;2.05;;;1.00;;
5646;SDS011;2845;48.626;9.362;2023-07-13T09:05:03;2.30;;;0.70;;
5646;SDS011;2845;48.626;9.362;2023-07-13T09:07:49;1.83;;;0.77;;
5646;SDS011;2845;48.626;9.362;2023-07-13T09:10:40;0.75;;;0.55;;
5646;SDS011;2845;48.626;9.362;2023-07-13T09:13:21;2.40;;;0.70;;
5646;SDS011;2845;48.626;9.362;2023-07-13T09:16:03;3.15;;;0.80;;
5646;SDS011;2845;48.626;9.362;2023-07-13T09:18:38;1.92;;;0.70;;
5646;SDS011;2845;48.626;9.362;2023-07-13T09:21:20;0.88;;;0.50;;
5646;SDS011;2845;48.626;9.362;2023-07-13T09:24:04;1.98;;;0.60;;
5646;SDS011;2845;48.626;9.362;2023-07-13T09:27:01;1.17;;;0.60;;
5646;SDS011;2845;48.626;9.362;2023-07-13T09:29:46;1.52;;;0.70;;
5646;SDS011;2845;48.626;9.362;2023-07-13T09:32:31;3.30;;;0.80;;
5646;SDS011;2845;48.626;9.362;2023-07-13T09:35:09;1.10;;;0.68;;
5646;SDS011;2845;48.626;9.362;2023-07-13T09:37:45;2.58;;;0.63;;
5646;SDS011;2845;48.626;9.362;2023-07-13T09:40:24;0.98;;;0.75;;
5646;SDS011;2845;48.626;9.362;2023-07-13T09:43:04;1.80;;;0.73;;
5646;SDS011;2845;48.626;9.362;2023-07-13T09:45:44;1.55;;;0.68;;
5646;SDS011;2845;48.626;9.362;2023-07-13T09:48:20;1.38;;;0.80;;
5646;SDS011;2845;48.626;9.362;2023-07-13T09:50:57;1.33;;;0.70;;
5646;SDS011;2845;48.626;9.362;2023-07-13T09:53:44;1.50;;;0.60;;
5646;SDS011;2845;48.626;9.362;2023-07-13T09:56:23;1.13;;;0.60;;
5646;SDS011;2845;48.626;9.362;2023-07-13T09:59:00;1.20;;;0.60;;
5646;SDS011;2845;48.626;9.362;2023-07-13T10:01:35;0.77;;;0.50;;
5646;SDS011;2845;48.626;9.362;2023-07-13T10:04:13;1.48;;;0.70;;
5646;SDS011;2845;48.626;9.362;2023-07-13T10:06:51;1.23;;;0.60;;
5646;SDS011;2845;48.626;9.362;2023-07-13T10:10:00;1.25;;;0.60;;
5646;SDS011;2845;48.626;9.362;2023-07-13T10:12:36;1.67;;;0.80;;
5646;SDS011;2845;48.626;9.362;2023-07-13T10:15:13;2.53;;;0.82;;
5646;SDS011;2845;48.626;9.362;2023-07-13T10:17:56;2.00;;;0.80;;
5646;SDS011;2845;48.626;9.362;2023-07-13T10:20:31;2.35;;;1.00;;
5646;SDS011;2845;48.626;9.362;2023-07-13T10:23:05;1.48;;;0.80;;
5646;SDS011;2845;48.626;9.362;2023-07-13T10:25:47;2.35;;;0.95;;
5646;SDS011;2845;48.626;9.362;2023-07-13T10:28:25;1.70;;;0.80;;
5646;SDS011;2845;48.626;9.362;2023-07-13T10:31:04;1.30;;;0.65;;
5646;SDS011;2845;48.626;9.362;2023-07-13T10:33:47;0.82;;;0.60;;
5646;SDS011;2845;48.626;9.362;2023-07-13T10:36:31;1.27;;;0.70;;
5646;SDS011;2845;48.626;9.362;2023-07-13T10:39:13;3.33;;;0.80;;
5646;SDS011;2845;48.626;9.362;2023-07-13T10:41:52;1.17;;;0.90;;
5646;SDS011;2845;48.626;9.362;2023-07-13T10:44:31;1.35;;;0.80;;
5646;SDS011;2845;48.626;9.362;2023-07-13T10:47:07;3.22;;;0.73;;
5646;SDS011;2845;48.626;9.362;2023-07-13T10:49:47;1.10;;;0.70;;
5646;SDS011;2845;48.626;9.362;2023-07-13T10:52:39;1.17;;;0.77;;
5646;SDS011;2845;48.626;9.362;2023-07-13T10:55:35;2.65;;;0.70;;
5646;SDS011;2845;48.626;9.362;2023-07-13T10:58:16;0.80;;;0.65;;
5646;SDS011;2845;48.626;9.362;2023-07-13T11:01:02;0.75;;;0.73;;
5646;SDS011;2845;48.626;9.362;2023-07-13T11:03:47;2.55;;;0.90;;
5646;SDS011;2845;48.626;9.362;2023-07-13T11:06:30;1.58;;;0.82;;
5646;SDS011;2845;48.626;9.362;2023-07-13T11:09:19;4.68;;;0.90;;
5646;SDS011;2845;48.626;9.362;2023-07-13T11:12:06;0.88;;;0.77;;
5646;SDS011;2845;48.626;9.362;2023-07-13T11:15:00;1.05;;;0.70;;
5646;SDS011;2845;48.626;9.362;2023-07-13T11:17:51;1.27;;;0.90;;
5646;SDS011;2845;48.626;9.362;2023-07-13T11:20:32;1.95;;;0.90;;
5646;SDS011;2845;48.626;9.362;2023-07-13T11:23:17;1.15;;;0.70;;
5646;SDS011;2845;48.626;9.362;2023-07-13T11:26:00;1.58;;;0.75;;
5646;SDS011;2845;48.626;9.362;2023-07-13T11:28:36;1.00;;;0.70;;
5646;SDS011;2845;48.626;9.362;2023-07-13T11:31:15;1.40;;;0.90;;
5646;SDS011;2845;48.626;9.362;2023-07-13T11:33:55;2.70;;;0.80;;
5646;SDS011;2845;48.626;9.362;2023-07-13T11:36:32;1.45;;;0.90;;
5646;SDS011;2845;48.626;9.362;2023-07-13T11:39:17;1.90;;;0.80;;
5646;SDS011;2845;48.626;9.362;2023-07-13T11:44:31;1.73;;;0.90;;
5646;SDS011;2845;48.626;9.362;2023-07-13T11:47:08;1.55;;;1.00;;
5646;SDS011;2845;48.626;9.362;2023-07-13T11:49:50;2.53;;;0.73;;
5646;SDS011;2845;48.626;9.362;2023-07-13T11:52:29;3.85;;;1.00;;
5646;SDS011;2845;48.626;9.362;2023-07-13T11:55:13;1.75;;;0.90;;
5646;SDS011;2845;48.626;9.362;2023-07-13T11:57:52;1.35;;;0.70;;
5646;SDS011;2845;48.626;9.362;2023-07-13T12:00:32;1.90;;;0.90;;
5646;SDS011;2845;48.626;9.362;2023-07-13T12:03:07;1.48;;;1.00;;
5646;SDS011;2845;48.626;9.362;2023-07-13T12:05:56;1.23;;;0.90;;
5646;SDS011;2845;48.626;9.362;2023-07-13T12:08:37;1.40;;;0.82;;
5646;SDS011;2845;48.626;9.362;2023-07-13T12:11:14;1.45;;;0.90;;
5646;SDS011;2845;48.626;9.362;2023-07-13T12:13:50;0.98;;;0.88;;
5646;SDS011;2845;48.626;9.362;2023-07-13T12:16:28;1.98;;;0.90;;
5646;SDS011;2845;48.626;9.362;2023-07-13T12:19:09;1.33;;;0.75;;
5646;SDS011;2845;48.626;9.362;2023-07-13T12:21:56;3.17;;;0.85;;
5646;SDS011;2845;48.626;9.362;2023-07-13T12:24:31;1.23;;;0.80;;
5646;SDS011;2845;48.626;9.362;2023-07-13T12:27:13;1.83;;;0.93;;
5646;SDS011;2845;48.626;9.362;2023-07-13T12:29:57;1.38;;;0.80;;
5646;SDS011;2845;48.626;9.362;2023-07-13T12:32:33;0.88;;;0.70;;
5646;SDS011;2845;48.626;9.362;2023-07-13T12:35:13;1.52;;;0.90;;
5646;SDS011;2845;48.626;9.362;2023-07-13T12:37:56;2.65;;;0.85;;
5646;SDS011;2845;48.626;9.362;2023-07-13T12:40:33;1.73;;;0.75;;
5646;SDS011;2845;48.626;9.362;2023-07-13T12:43:11;1.80;;;0.70;;
5646;SDS011;2845;48.626;9.362;2023-07-13T12:45:57;1.58;;;0.85;;
5646;SDS011;2845;48.626;9.362;2023-07-13T12:48:37;1.25;;;0.80;;
5646;SDS011;2845;48.626;9.362;2023-07-13T12:51:25;3.40;;;0.90;;
5646;SDS011;2845;48.626;9.362;2023-07-13T12:54:07;2.17;;;1.00;;
5646;SDS011;2845;48.626;9.362;2023-07-13T12:56:53;0.90;;;0.73;;
5646;SDS011;2845;48.626;9.362;2023-07-13T12:59:31;2.75;;;0.70;;
5646;SDS011;2845;48.626;9.362;2023-07-13T13:02:23;2.30;;;1.20;;
5646;SDS011;2845;48.626;9.362;2023-07-13T13:05:04;1.60;;;0.85;;
5646;SDS011;2845;48.626;9.362;2023-07-13T13:07:38;1.90;;;0.80;;
5646;SDS011;2845;48.626;9.362;2023-07-13T13:10:14;1.45;;;0.80;;
5646;SDS011;2845;48.626;9.362;2023-07-13T13:12:50;3.78;;;1.10;;
5646;SDS011;2845;48.626;9.362;2023-07-13T13:15:25;1.17;;;1.00;;
5646;SDS011;2845;48.626;9.362;2023-07-13T13:17:59;2.10;;;0.80;;
5646;SDS011;2845;48.626;9.362;2023-07-13T13:20:34;1.52;;;0.85;;
5646;SDS011;2845;48.626;9.362;2023-07-13T13:23:10;2.85;;;1.00;;
5646;SDS011;2845;48.626;9.362;2023-07-13T13:25:49;1.77;;;0.90;;
5646;SDS011;2845;48.626;9.362;2023-07-13T13:28:24;0.82;;;0.75;;
5646;SDS011;2845;48.626;9.362;2023-07-13T13:30:58;1.10;;;0.90;;
5646;SDS011;2845;48.626;9.362;2023-07-13T13:33:33;1.55;;;1.02;;
5646;SDS011;2845;48.626;9.362;2023-07-13T13:36:08;1.95;;;1.05;;
5646;SDS011;2845;48.626;9.362;2023-07-13T13:38:49;1.95;;;0.90;;
5646;SDS011;2845;48.626;9.362;2023-07-13T13:41:26;1.80;;;0.98;;
5646;SDS011;2845;48.626;9.362;2023-07-13T13:44:01;5.25;;;1.33;;
5646;SDS011;2845;48.626;9.362;2023-07-13T13:46:37;2.83;;;1.15;;
5646;SDS011;2845;48.626;9.362;2023-07-13T13:49:12;1.60;;;0.98;;
5646;SDS011;2845;48.626;9.362;2023-07-13T13:51:51;1.52;;;0.90;;
5646;SDS011;2845;48.626;9.362;2023-07-13T13:54:25;1.65;;;1.20;;
5646;SDS011;2845;48.626;9.362;2023-07-13T13:57:01;1.73;;;1.00;;
5646;SDS011;2845;48.626;9.362;2023-07-13T13:59:39;1.17;;;1.00;;
5646;SDS011;2845;48.626;9.362;2023-07-13T14:02:22;3.15;;;1.20;;
5646;SDS011;2845;48.626;9.362;2023-07-13T14:05:01;2.38;;;1.20;;
5646;SDS011;2845;48.626;9.362;2023-07-13T14:07:37;1.17;;;1.00;;
5646;SDS011;2845;48.626;9.362;2023-07-13T14:10:12;2.33;;;1.20;;
5646;SDS011;2845;48.626;9.362;2023-07-13T14:12:52;1.83;;;1.23;;
5646;SDS011;2845;48.626;9.362;2023-07-13T14:15:28;2.13;;;1.00;;
5646;SDS011;2845;48.626;9.362;2023-07-13T14:18:04;2.20;;;1.10;;
5646;SDS011;2845;48.626;9.362;2023-07-13T14:20:38;1.25;;;1.08;;
5646;SDS011;2845;48.626;9.362;2023-07-13T14:23:13;2.65;;;1.00;;
5646;SDS011;2845;48.626;9.362;2023-07-13T14:25:51;2.25;;;1.15;;
5646;SDS011;2845;48.626;9.362;2023-07-13T14:28:27;1.70;;;1.20;;
5646;SDS011;2845;48.626;9.362;2023-07-13T14:31:02;2.17;;;1.23;;
5646;SDS011;2845;48.626;9.362;2023-07-13T14:33:36;1.10;;;1.00;;
5646;SDS011;2845;48.626;9.362;2023-07-13T14:36:25;1.77;;;1.25;;
5646;SDS011;2845;48.626;9.362;2023-07-13T14:39:08;1.95;;;1.20;;
5646;SDS011;2845;48.626;9.362;2023-07-13T14:41:49;1.45;;;1.02;;
5646;SDS011;2845;48.626;9.362;2023-07-13T14:44:27;2.42;;;1.20;;
5646;SDS011;2845;48.626;9.362;2023-07-13T14:47:04;1.63;;;1.00;;
5646;SDS011;2845;48.626;9.362;2023-07-13T14:49:40;2.65;;;1.40;;
5646;SDS011;2845;48.626;9.362;2023-07-13T14:52:17;2.00;;;1.13;;
5646;SDS011;2845;48.626;9.362;2023-07-13T14:54:59;1.65;;;1.00;;
5646;SDS011;2845;48.626;9.362;2023-07-13T14:57:33;1.20;;;0.95;;
5646;SDS011;2845;48.626;9.362;2023-07-13T15:00:13;2.75;;;1.55;;
5646;SDS011;2845;48.626;9.362;2023-07-13T15:02:51;2.20;;;1.30;;
5646;SDS011;2845;48.626;9.362;2023-07-13T15:05:28;1.45;;;0.90;;
5646;SDS011;2845;48.626;9.362;2023-07-13T15:08:04;1.23;;;1.02;;
5646;SDS011;2845;48.626;9.362;2023-07-13T15:10:39;3.45;;;1.30;;
5646;SDS011;2845;48.626;9.362;2023-07-13T15:13:14;1.73;;;1.08;;
5646;SDS011;2845;48.626;9.362;2023-07-13T15:15:52;1.48;;;1.10;;
5646;SDS011;2845;48.626;9.362;2023-07-13T15:18:27;1.63;;;0.98;;
5646;SDS011;2845;48.626;9.362;2023-07-13T15:21:02;2.35;;;0.93;;
5646;SDS011;2845;48.626;9.362;2023-07-13T15:23:37;1.63;;;1.10;;
5646;SDS011;2845;48.626;9.362;2023-07-13T15:26:13;1.38;;;1.08;;
5646;SDS011;2845;48.626;9.362;2023-07-13T15:28:49;1.42;;;1.02;;
5646;SDS011;2845;48.626;9.362;2023-07-13T15:31:25;1.52;;;1.00;;
5646;SDS011;2845;48.626;9.362;2023-07-13T15:34:00;1.63;;;0.80;;
5646;SDS011;2845;48.626;9.362;2023-07-13T15:36:44;1.83;;;0.98;;
5646;SDS011;2845;48.626;9.362;2023-07-13T15:39:19;1.15;;;0.95;;
5646;SDS011;2845;48.626;9.362;2023-07-13T15:41:54;1.48;;;1.00;;
5646;SDS011;2845;48.626;9.362;2023-07-13T15:44:29;1.42;;;0.80;;
5646;SDS011;2845;48.626;9.362;2023-07-13T15:47:08;1.35;;;0.90;;
5646;SDS011;2845;48.626;9.362;2023-07-13T15:49:44;2.38;;;1.30;;
5646;SDS011;2845;48.626;9.362;2023-07-13T15:52:19;1.08;;;0.90;;
5646;SDS011;2845;48.626;9.362;2023-07-13T15:54:57;2.25;;;0.98;;
5646;SDS011;2845;48.626;9.362;2023-07-13T15:57:34;1.58;;;1.00;;
5646;SDS011;2845;48.626;9.362;2023-07-13T16:00:13;1.75;;;0.70;;
5646;SDS011;2845;48.626;9.362;2023-07-13T16:02:55;1.90;;;0.80;;
5646;SDS011;2845;48.626;9.362;2023-07-13T16:05:30;2.95;;;1.10;;
5646;SDS011;2845;48.626;9.362;2023-07-13T16:08:04;1.52;;;0.90;;
5646;SDS011;2845;48.626;9.362;2023-07-13T16:10:50;1.27;;;0.93;;
5646;SDS011;2845;48.626;9.362;2023-07-13T16:13:25;1.73;;;0.80;;
5646;SDS011;2845;48.626;9.362;2023-07-13T16:15:59;1.13;;;0.80;;
5646;SDS011;2845;48.626;9.362;2023-07-13T16:18:35;1.65;;;0.90;;